KPMD/PMD METAR and TAF weather

Enter ICAO airport designator
Station Type Date Time Source
KPMD METAR 2020/09/26 11:53 UTC NOAA

KPMD 261153Z AUTO 14003KT 10SM CLR 14/06 A2999 RMK AO2 SLP130 T01440061 10206 20133 56007


Station Type Date Time Source
KPMD Decoded METAR 2020/09/26 11:53 UTC NOAA

PALMDALE PROD FLIGHT PLANT, CA, United States (KPMD) 34-38N 118-05W 780M
Sep 26, 2020 - 07:53 AM EDT / 2020.09.26 1153 UTC
Wind: from the SE (140 degrees) at 3 MPH (3 KT):0
Visibility: 10 mile(s):0
Sky conditions: clear
Temperature: 57.9 F (14.4 C)
Dew Point: 43.0 F (6.1 C)
Relative Humidity: 57%
Pressure (altimeter): 29.99 in. Hg (1015 hPa)
Pressure tendency: 0.02 inches (0.7 hPa) lower than three hours ago
ob: KPMD 261153Z AUTO 14003KT 10SM CLR 14/06 A2999 RMK AO2 SLP130 T01440061 10206 20133 56007
cycle: 12

Station Type Date Time Source
KPMD TAF 2020/09/26 12:36 UTC NOAA

TAF KPMD 261135Z 2612/2712 23006KT P6SM SKC
FM262200 26015KT P6SM SKC
FM270500 23008KT P6SM SKC

Example: see airport list